sensor_id;sensor_type;location;lat;lon;timestamp;pressure;altitude;pressure_sealevel;temperature;humidity
49583;BME280;36329;48.816;44.624;2023-05-20T00:02:02;101348;;;16.7;47.8
49583;BME280;36329;48.816;44.624;2023-05-20T00:05:05;101341;;;16.7;47.9
49583;BME280;36329;48.816;44.624;2023-05-20T00:08:08;101342;;;16.7;48.3
49583;BME280;36329;48.816;44.624;2023-05-20T00:11:10;101340;;;16.6;49.3
49583;BME280;36329;48.816;44.624;2023-05-20T00:14:12;101339;;;16.5;49.8
49583;BME280;36329;48.816;44.624;2023-05-20T00:17:14;101340;;;16.4;50.3
49583;BME280;36329;48.816;44.624;2023-05-20T00:20:16;101343;;;16.3;51.1
49583;BME280;36329;48.816;44.624;2023-05-20T00:23:18;101339;;;16.2;51.2
49583;BME280;36329;48.816;44.624;2023-05-20T00:26:20;101339;;;16.2;51.5
49583;BME280;36329;48.816;44.624;2023-05-20T00:29:22;101339;;;16.1;51.5
49583;BME280;36329;48.816;44.624;2023-05-20T00:32:24;101340;;;16;51.7
49583;BME280;36329;48.816;44.624;2023-05-20T00:35:26;101333;;;15.9;51.7
49583;BME280;36329;48.816;44.624;2023-05-20T00:38:28;101334;;;15.8;52.1
49583;BME280;36329;48.816;44.624;2023-05-20T00:41:30;101329;;;15.7;52.6
49583;BME280;36329;48.816;44.624;2023-05-20T00:44:32;101326;;;15.7;52.7
49583;BME280;36329;48.816;44.624;2023-05-20T00:47:34;101321;;;15.6;53.1
49583;BME280;36329;48.816;44.624;2023-05-20T00:50:37;101327;;;15.6;53.1
49583;BME280;36329;48.816;44.624;2023-05-20T00:53:40;101322;;;15.6;53.6
49583;BME280;36329;48.816;44.624;2023-05-20T00:56:43;101326;;;15.6;53.8
49583;BME280;36329;48.816;44.624;2023-05-20T00:59:45;101325;;;15.6;53.6
49583;BME280;36329;48.816;44.624;2023-05-20T01:02:47;101324;;;15.6;53.9
49583;BME280;36329;48.816;44.624;2023-05-20T01:05:51;101322;;;15.5;54.4
49583;BME280;36329;48.816;44.624;2023-05-20T01:08:53;101321;;;15.5;54.6
49583;BME280;36329;48.816;44.624;2023-05-20T01:11:58;101326;;;15.3;55
49583;BME280;36329;48.816;44.624;2023-05-20T01:15:07;101325;;;15.3;55.4
49583;BME280;36329;48.816;44.624;2023-05-20T01:18:12;101322;;;15.4;55.6
49583;BME280;36329;48.816;44.624;2023-05-20T01:21:16;101320;;;15.4;55.8
49583;BME280;36329;48.816;44.624;2023-05-20T01:24:18;101321;;;15.3;56
49583;BME280;36329;48.816;44.624;2023-05-20T01:27:20;101322;;;15.3;56
49583;BME280;36329;48.816;44.624;2023-05-20T01:30:25;101317;;;15.3;56.4
49583;BME280;36329;48.816;44.624;2023-05-20T01:33:32;101322;;;15.2;56.7
49583;BME280;36329;48.816;44.624;2023-05-20T01:36:37;101314;;;15.1;56.5
49583;BME280;36329;48.816;44.624;2023-05-20T01:39:41;101312;;;15.1;56.9
49583;BME280;36329;48.816;44.624;2023-05-20T01:42:44;101312;;;15.1;56.6
49583;BME280;36329;48.816;44.624;2023-05-20T01:45:46;101315;;;15.1;56.5
49583;BME280;36329;48.816;44.624;2023-05-20T01:48:48;101314;;;15.1;56.6
49583;BME280;36329;48.816;44.624;2023-05-20T01:51:50;101315;;;15.2;56.7
49583;BME280;36329;48.816;44.624;2023-05-20T01:54:52;101314;;;15.2;56.7
49583;BME280;36329;48.816;44.624;2023-05-20T01:57:54;101309;;;15.3;56.5
49583;BME280;36329;48.816;44.624;2023-05-20T02:00:56;101317;;;15.4;56.2
49583;BME280;36329;48.816;44.624;2023-05-20T02:03:58;101319;;;15.4;56
49583;BME280;36329;48.816;44.624;2023-05-20T02:07:00;101319;;;15.5;56.1
49583;BME280;36329;48.816;44.624;2023-05-20T02:10:02;101317;;;15.5;56.1
49583;BME280;36329;48.816;44.624;2023-05-20T02:13:09;101321;;;15.6;56.4
49583;BME280;36329;48.816;44.624;2023-05-20T02:16:11;101324;;;15.7;56.1
49583;BME280;36329;48.816;44.624;2023-05-20T02:19:13;101308;;;15.8;56.5
49583;BME280;36329;48.816;44.624;2023-05-20T02:22:15;101328;;;15.8;56.6
49583;BME280;36329;48.816;44.624;2023-05-20T02:25:17;101328;;;15.9;56.9
49583;BME280;36329;48.816;44.624;2023-05-20T02:28:19;101332;;;16;56.1
49583;BME280;36329;48.816;44.624;2023-05-20T02:31:21;101328;;;16.1;56.4
49583;BME280;36329;48.816;44.624;2023-05-20T02:34:23;101335;;;16.3;55.5
49583;BME280;36329;48.816;44.624;2023-05-20T02:37:25;101338;;;16.3;55.6
49583;BME280;36329;48.816;44.624;2023-05-20T02:40:27;101340;;;16.3;55.3
49583;BME280;36329;48.816;44.624;2023-05-20T02:43:29;101339;;;16.3;55.6
49583;BME280;36329;48.816;44.624;2023-05-20T02:46:31;101334;;;16.4;56.7
49583;BME280;36329;48.816;44.624;2023-05-20T02:49:32;101337;;;16.4;55.8
49583;BME280;36329;48.816;44.624;2023-05-20T02:52:34;101334;;;16.6;55.3
49583;BME280;36329;48.816;44.624;2023-05-20T02:55:36;101334;;;16.7;57.4
49583;BME280;36329;48.816;44.624;2023-05-20T02:58:38;101333;;;16.9;55.5
49583;BME280;36329;48.816;44.624;2023-05-20T03:01:40;101335;;;17;55.9
49583;BME280;36329;48.816;44.624;2023-05-20T03:04:42;101325;;;17.2;54.8
49583;BME280;36329;48.816;44.624;2023-05-20T03:07:44;101333;;;17.3;54.2
49583;BME280;36329;48.816;44.624;2023-05-20T03:10:46;101330;;;17.3;55.1
49583;BME280;36329;48.816;44.624;2023-05-20T03:13:49;101330;;;17.4;53.2
49583;BME280;36329;48.816;44.624;2023-05-20T03:16:51;101330;;;17.5;52.4
49583;BME280;36329;48.816;44.624;2023-05-20T03:19:52;101333;;;17.6;51.2
49583;BME280;36329;48.816;44.624;2023-05-20T03:22:54;101338;;;17.8;50.1
49583;BME280;36329;48.816;44.624;2023-05-20T03:25:56;101337;;;18;50.3
49583;BME280;36329;48.816;44.624;2023-05-20T03:28:58;101342;;;18.1;50.6
49583;BME280;36329;48.816;44.624;2023-05-20T03:32:00;101345;;;18.1;50.6
49583;BME280;36329;48.816;44.624;2023-05-20T03:35:02;101339;;;18.3;50
49583;BME280;36329;48.816;44.624;2023-05-20T03:38:06;101336;;;18.3;51
49583;BME280;36329;48.816;44.624;2023-05-20T03:41:08;101336;;;18.3;51.4
49583;BME280;36329;48.816;44.624;2023-05-20T03:44:10;101333;;;18.5;51.1
49583;BME280;36329;48.816;44.624;2023-05-20T03:47:12;101331;;;18.6;51.1
49583;BME280;36329;48.816;44.624;2023-05-20T03:50:14;101334;;;18.6;52
49583;BME280;36329;48.816;44.624;2023-05-20T03:53:16;101338;;;18.7;52
49583;BME280;36329;48.816;44.624;2023-05-20T03:56:18;101341;;;18.9;51.9
49583;BME280;36329;48.816;44.624;2023-05-20T03:59:19;101346;;;19.2;52.1
49583;BME280;36329;48.816;44.624;2023-05-20T04:02:21;101347;;;19.3;49.9
49583;BME280;36329;48.816;44.624;2023-05-20T04:05:23;101352;;;19.4;50.2
49583;BME280;36329;48.816;44.624;2023-05-20T04:08:25;101354;;;19.4;48.3
49583;BME280;36329;48.816;44.624;2023-05-20T04:11:27;101352;;;19.5;50.9
49583;BME280;36329;48.816;44.624;2023-05-20T04:14:30;101354;;;19.6;49.4
49583;BME280;36329;48.816;44.624;2023-05-20T04:17:32;101351;;;19.9;48.4
49583;BME280;36329;48.816;44.624;2023-05-20T04:20:34;101353;;;20;47.5
49583;BME280;36329;48.816;44.624;2023-05-20T04:23:36;101350;;;20.1;48.2
49583;BME280;36329;48.816;44.624;2023-05-20T04:26:38;101353;;;20.1;47.7
49583;BME280;36329;48.816;44.624;2023-05-20T04:29:41;101357;;;20.3;48.6
49583;BME280;36329;48.816;44.624;2023-05-20T04:32:43;101363;;;20.4;47.4
49583;BME280;36329;48.816;44.624;2023-05-20T04:35:45;101364;;;20.3;46.2
49583;BME280;36329;48.816;44.624;2023-05-20T04:38:47;101373;;;20.3;47
49583;BME280;36329;48.816;44.624;2023-05-20T04:41:49;101374;;;20;45.4
49583;BME280;36329;48.816;44.624;2023-05-20T04:44:51;101376;;;19.9;44.6
49583;BME280;36329;48.816;44.624;2023-05-20T04:47:53;101380;;;20.1;44
49583;BME280;36329;48.816;44.624;2023-05-20T04:50:55;101384;;;20.2;43.9
49583;BME280;36329;48.816;44.624;2023-05-20T04:53:57;101387;;;19.7;44.4
49583;BME280;36329;48.816;44.624;2023-05-20T04:56:59;101391;;;20;44.2
49583;BME280;36329;48.816;44.624;2023-05-20T05:00:01;101401;;;20.4;44.1
49583;BME280;36329;48.816;44.624;2023-05-20T05:03:07;101392;;;20.5;45.5
49583;BME280;36329;48.816;44.624;2023-05-20T05:06:09;101393;;;20.9;44.1
49583;BME280;36329;48.816;44.624;2023-05-20T05:09:11;101391;;;20.6;43.4
49583;BME280;36329;48.816;44.624;2023-05-20T05:12:13;101399;;;20.7;44
49583;BME280;36329;48.816;44.624;2023-05-20T05:15:15;101401;;;20.7;44.2
49583;BME280;36329;48.816;44.624;2023-05-20T05:18:17;101403;;;20.9;45.7
49583;BME280;36329;48.816;44.624;2023-05-20T05:21:19;101395;;;20.9;44.3
49583;BME280;36329;48.816;44.624;2023-05-20T05:24:20;101399;;;20.8;44.4
49583;BME280;36329;48.816;44.624;2023-05-20T05:27:22;101398;;;20.6;45.2
49583;BME280;36329;48.816;44.624;2023-05-20T05:30:24;101401;;;20.6;45.2
49583;BME280;36329;48.816;44.624;2023-05-20T05:33:26;101400;;;20.9;45.5
49583;BME280;36329;48.816;44.624;2023-05-20T05:36:32;101398;;;21.2;44.2
49583;BME280;36329;48.816;44.624;2023-05-20T05:39:35;101395;;;21.7;43.4
49583;BME280;36329;48.816;44.624;2023-05-20T05:42:37;101395;;;22.1;44.2
49583;BME280;36329;48.816;44.624;2023-05-20T05:45:38;101398;;;22.1;41.7
49583;BME280;36329;48.816;44.624;2023-05-20T05:48:40;101398;;;21.9;40.3
49583;BME280;36329;48.816;44.624;2023-05-20T05:51:42;101400;;;22.1;42.6
49583;BME280;36329;48.816;44.624;2023-05-20T05:54:44;101395;;;22.1;40.5
49583;BME280;36329;48.816;44.624;2023-05-20T05:57:46;101402;;;22.3;40.1
49583;BME280;36329;48.816;44.624;2023-05-20T06:00:50;101400;;;22.6;39.3
49583;BME280;36329;48.816;44.624;2023-05-20T06:03:52;101393;;;22.6;39.8
49583;BME280;36329;48.816;44.624;2023-05-20T06:06:54;101403;;;22.9;38.3
49583;BME280;36329;48.816;44.624;2023-05-20T06:09:56;101404;;;23.3;38.3
49583;BME280;36329;48.816;44.624;2023-05-20T06:12:58;101399;;;23.7;36.7
49583;BME280;36329;48.816;44.624;2023-05-20T06:16:00;101398;;;24.1;36.2
49583;BME280;36329;48.816;44.624;2023-05-20T06:19:02;101401;;;23.7;34.8
49583;BME280;36329;48.816;44.624;2023-05-20T06:22:04;101401;;;24;34.7
49583;BME280;36329;48.816;44.624;2023-05-20T06:25:07;101401;;;24.2;35.5
49583;BME280;36329;48.816;44.624;2023-05-20T06:28:09;101403;;;24.1;31.9
49583;BME280;36329;48.816;44.624;2023-05-20T06:31:11;101406;;;23.6;33
49583;BME280;36329;48.816;44.624;2023-05-20T06:34:13;101403;;;23.3;31.8
49583;BME280;36329;48.816;44.624;2023-05-20T06:37:15;101410;;;23.5;30.9
49583;BME280;36329;48.816;44.624;2023-05-20T06:40:17;101407;;;23.6;30.8
49583;BME280;36329;48.816;44.624;2023-05-20T06:43:20;101406;;;23.7;31.4
49583;BME280;36329;48.816;44.624;2023-05-20T06:46:22;101402;;;24.5;30.9
49583;BME280;36329;48.816;44.624;2023-05-20T06:49:24;101399;;;24.5;31.2
49583;BME280;36329;48.816;44.624;2023-05-20T06:52:26;101392;;;25.2;29.3
49583;BME280;36329;48.816;44.624;2023-05-20T06:55:28;101394;;;25.2;28.3
49583;BME280;36329;48.816;44.624;2023-05-20T06:58:31;101393;;;24.4;28
49583;BME280;36329;48.816;44.624;2023-05-20T07:01:33;101394;;;24.4;27.4
49583;BME280;36329;48.816;44.624;2023-05-20T07:04:35;101395;;;24.2;27.3
49583;BME280;36329;48.816;44.624;2023-05-20T07:07:37;101392;;;24.8;26.8
49583;BME280;36329;48.816;44.624;2023-05-20T07:10:39;101386;;;25.2;26.7
49583;BME280;36329;48.816;44.624;2023-05-20T07:13:41;101389;;;25.8;25.4
49583;BME280;36329;48.816;44.624;2023-05-20T07:16:43;101390;;;25.7;26.1
49583;BME280;36329;48.816;44.624;2023-05-20T07:19:45;101384;;;25.9;27.6
49583;BME280;36329;48.816;44.624;2023-05-20T07:22:47;101384;;;25.5;27.7
49583;BME280;36329;48.816;44.624;2023-05-20T07:25:49;101393;;;25.6;28.2
49583;BME280;36329;48.816;44.624;2023-05-20T07:28:51;101378;;;26.3;27
49583;BME280;36329;48.816;44.624;2023-05-20T07:31:52;101376;;;26.4;27.8
49583;BME280;36329;48.816;44.624;2023-05-20T07:34:55;101375;;;26.5;28.1
49583;BME280;36329;48.816;44.624;2023-05-20T07:37:57;101370;;;27.3;27.8
49583;BME280;36329;48.816;44.624;2023-05-20T07:40:59;101368;;;28;26.3
49583;BME280;36329;48.816;44.624;2023-05-20T07:44:01;101371;;;26.9;26.7
49583;BME280;36329;48.816;44.624;2023-05-20T07:47:03;101363;;;26.9;27.5
49583;BME280;36329;48.816;44.624;2023-05-20T07:50:06;101369;;;27.3;27.1
49583;BME280;36329;48.816;44.624;2023-05-20T07:53:08;101360;;;28.1;25.8
49583;BME280;36329;48.816;44.624;2023-05-20T07:56:10;101361;;;27.7;25.9
49583;BME280;36329;48.816;44.624;2023-05-20T07:59:12;101366;;;27.5;26.1
49583;BME280;36329;48.816;44.624;2023-05-20T08:02:13;101361;;;28.1;25.4
49583;BME280;36329;48.816;44.624;2023-05-20T08:05:15;101367;;;27.5;25.9
49583;BME280;36329;48.816;44.624;2023-05-20T08:08:17;101371;;;27.3;25.5
49583;BME280;36329;48.816;44.624;2023-05-20T08:11:20;101376;;;26.5;26.1
49583;BME280;36329;48.816;44.624;2023-05-20T08:14:22;101374;;;26.5;26.8
49583;BME280;36329;48.816;44.624;2023-05-20T08:17:24;101374;;;26.6;26.2
49583;BME280;36329;48.816;44.624;2023-05-20T08:20:25;101374;;;27;25.7
49583;BME280;36329;48.816;44.624;2023-05-20T08:23:28;101373;;;26.7;25.9
49583;BME280;36329;48.816;44.624;2023-05-20T08:26:29;101370;;;26.5;26
49583;BME280;36329;48.816;44.624;2023-05-20T08:29:31;101366;;;27.4;25.3
49583;BME280;36329;48.816;44.624;2023-05-20T08:32:33;101361;;;28.3;23.5
49583;BME280;36329;48.816;44.624;2023-05-20T08:35:35;101358;;;28.2;23.4
49583;BME280;36329;48.816;44.624;2023-05-20T08:38:37;101361;;;28.7;23.8
49583;BME280;36329;48.816;44.624;2023-05-20T08:41:39;101357;;;27.6;24.1
49583;BME280;36329;48.816;44.624;2023-05-20T08:44:43;101354;;;28.2;24.5
49583;BME280;36329;48.816;44.624;2023-05-20T08:47:46;101353;;;28.6;22.8
49583;BME280;36329;48.816;44.624;2023-05-20T08:50:50;101353;;;28.8;22.9
49583;BME280;36329;48.816;44.624;2023-05-20T08:53:52;101350;;;29.4;21.8
49583;BME280;36329;48.816;44.624;2023-05-20T08:56:54;101346;;;29.7;21.4
49583;BME280;36329;48.816;44.624;2023-05-20T08:59:58;101336;;;30.4;21.2
49583;BME280;36329;48.816;44.624;2023-05-20T09:03:00;101334;;;30;20.2
49583;BME280;36329;48.816;44.624;2023-05-20T09:06:04;101333;;;28.9;21.2
49583;BME280;36329;48.816;44.624;2023-05-20T09:09:06;101335;;;29.5;20.3
49583;BME280;36329;48.816;44.624;2023-05-20T09:12:08;101333;;;30;21.3
49583;BME280;36329;48.816;44.624;2023-05-20T09:15:09;101324;;;30.6;21
49583;BME280;36329;48.816;44.624;2023-05-20T09:18:11;101330;;;30.7;18.9
49583;BME280;36329;48.816;44.624;2023-05-20T09:21:13;101330;;;30.3;19.7
49583;BME280;36329;48.816;44.624;2023-05-20T09:24:19;101327;;;30.4;19.4
49583;BME280;36329;48.816;44.624;2023-05-20T09:27:21;101327;;;30.6;19.1
49583;BME280;36329;48.816;44.624;2023-05-20T09:30:24;101324;;;30.7;19.6
49583;BME280;36329;48.816;44.624;2023-05-20T09:33:27;101318;;;30.6;19
49583;BME280;36329;48.816;44.624;2023-05-20T09:36:32;101317;;;30.7;18.2
49583;BME280;36329;48.816;44.624;2023-05-20T09:39:44;101312;;;30.7;18.1
49583;BME280;36329;48.816;44.624;2023-05-20T09:42:51;101313;;;30.4;20.7
49583;BME280;36329;48.816;44.624;2023-05-20T09:45:54;101303;;;29.6;19
49583;BME280;36329;48.816;44.624;2023-05-20T09:48:56;101302;;;29.9;18.6
49583;BME280;36329;48.816;44.624;2023-05-20T09:52:01;101302;;;30.2;20.7
49583;BME280;36329;48.816;44.624;2023-05-20T09:55:04;101304;;;29.2;18.7
49583;BME280;36329;48.816;44.624;2023-05-20T09:58:08;101303;;;29;20.8
49583;BME280;36329;48.816;44.624;2023-05-20T10:01:11;101301;;;29.3;21.4
49583;BME280;36329;48.816;44.624;2023-05-20T10:04:15;101296;;;29.4;19.6
49583;BME280;36329;48.816;44.624;2023-05-20T10:07:27;101303;;;29.5;21.3
49583;BME280;36329;48.816;44.624;2023-05-20T10:10:40;101300;;;28.5;20.6
49583;BME280;36329;48.816;44.624;2023-05-20T10:13:56;101296;;;28.9;20.9
49583;BME280;36329;48.816;44.624;2023-05-20T10:17:05;101300;;;29.5;22.4
49583;BME280;36329;48.816;44.624;2023-05-20T10:20:08;101304;;;29.9;20.8
49583;BME280;36329;48.816;44.624;2023-05-20T10:23:19;101296;;;29.9;22.3
49583;BME280;36329;48.816;44.624;2023-05-20T10:26:22;101290;;;29;20.6
49583;BME280;36329;48.816;44.624;2023-05-20T10:29:24;101300;;;29.5;23
49583;BME280;36329;48.816;44.624;2023-05-20T10:32:27;101302;;;28.5;21.3
49583;BME280;36329;48.816;44.624;2023-05-20T10:35:29;101293;;;28.7;22.6
49583;BME280;36329;48.816;44.624;2023-05-20T10:38:31;101298;;;29.1;23.1
49583;BME280;36329;48.816;44.624;2023-05-20T10:41:33;101291;;;29;21.7
49583;BME280;36329;48.816;44.624;2023-05-20T10:44:43;101288;;;29.4;23
49583;BME280;36329;48.816;44.624;2023-05-20T10:47:53;101293;;;29.5;23
49583;BME280;36329;48.816;44.624;2023-05-20T10:50:57;101290;;;29.5;23.1
49583;BME280;36329;48.816;44.624;2023-05-20T10:54:00;101292;;;29.5;21.6
49583;BME280;36329;48.816;44.624;2023-05-20T10:57:06;101290;;;29.1;21.8
49583;BME280;36329;48.816;44.624;2023-05-20T11:00:08;101297;;;29;23.8
49583;BME280;36329;48.816;44.624;2023-05-20T11:03:12;101286;;;28.9;22.2
49583;BME280;36329;48.816;44.624;2023-05-20T11:06:16;101286;;;28.9;23.6
49583;BME280;36329;48.816;44.624;2023-05-20T11:09:18;101283;;;28.4;22.8
49583;BME280;36329;48.816;44.624;2023-05-20T11:12:20;101285;;;28.4;22.6
49583;BME280;36329;48.816;44.624;2023-05-20T11:15:23;101282;;;27.8;22.8
49583;BME280;36329;48.816;44.624;2023-05-20T11:18:26;101275;;;27.4;23.8
49583;BME280;36329;48.816;44.624;2023-05-20T11:21:28;101277;;;27.7;23.9
49583;BME280;36329;48.816;44.624;2023-05-20T11:24:30;101277;;;27.8;24.1
49583;BME280;36329;48.816;44.624;2023-05-20T11:27:32;101272;;;28;24.1
49583;BME280;36329;48.816;44.624;2023-05-20T11:30:34;101269;;;27.9;24.1
49583;BME280;36329;48.816;44.624;2023-05-20T11:33:40;101274;;;27.8;23.8
49583;BME280;36329;48.816;44.624;2023-05-20T11:36:43;101270;;;27.9;22.4
49583;BME280;36329;48.816;44.624;2023-05-20T11:39:45;101275;;;27.4;23.3
49583;BME280;36329;48.816;44.624;2023-05-20T11:42:46;101269;;;27.6;23.6
49583;BME280;36329;48.816;44.624;2023-05-20T11:45:52;101270;;;27.7;23.3
49583;BME280;36329;48.816;44.624;2023-05-20T11:48:56;101278;;;27.7;23.1
49583;BME280;36329;48.816;44.624;2023-05-20T11:51:58;101271;;;27.6;23.2
49583;BME280;36329;48.816;44.624;2023-05-20T11:55:00;101268;;;27.4;23.4
49583;BME280;36329;48.816;44.624;2023-05-20T11:58:02;101266;;;27.5;23.7
49583;BME280;36329;48.816;44.624;2023-05-20T12:01:05;101268;;;27.6;23.6
49583;BME280;36329;48.816;44.624;2023-05-20T12:04:07;101262;;;27.4;23.7
49583;BME280;36329;48.816;44.624;2023-05-20T12:07:09;101265;;;27.4;23.4
49583;BME280;36329;48.816;44.624;2023-05-20T12:10:11;101271;;;27.3;24.1
49583;BME280;36329;48.816;44.624;2023-05-20T12:13:13;101272;;;27.3;23.9
49583;BME280;36329;48.816;44.624;2023-05-20T12:16:15;101274;;;27.3;24
49583;BME280;36329;48.816;44.624;2023-05-20T12:19:17;101272;;;27.2;23.9
49583;BME280;36329;48.816;44.624;2023-05-20T12:22:19;101271;;;27.2;23.6
49583;BME280;36329;48.816;44.624;2023-05-20T12:25:20;101267;;;27.3;23.7
49583;BME280;36329;48.816;44.624;2023-05-20T12:28:22;101265;;;27.1;23.7
49583;BME280;36329;48.816;44.624;2023-05-20T12:31:25;101257;;;27.1;24.1
49583;BME280;36329;48.816;44.624;2023-05-20T12:34:27;101257;;;27.1;23.8
49583;BME280;36329;48.816;44.624;2023-05-20T12:37:29;101249;;;27;24.1
49583;BME280;36329;48.816;44.624;2023-05-20T12:40:31;101252;;;27.2;24.3
49583;BME280;36329;48.816;44.624;2023-05-20T12:43:34;101248;;;27.2;24.3
49583;BME280;36329;48.816;44.624;2023-05-20T12:46:36;101252;;;27.3;23.6
49583;BME280;36329;48.816;44.624;2023-05-20T12:49:39;101253;;;27.2;23.7
49583;BME280;36329;48.816;44.624;2023-05-20T12:52:41;101252;;;27.1;24
49583;BME280;36329;48.816;44.624;2023-05-20T12:55:43;101246;;;27.1;23.8
49583;BME280;36329;48.816;44.624;2023-05-20T13:02:31;101235;;;27.1;23.6
49583;BME280;36329;48.816;44.624;2023-05-20T13:05:33;101228;;;27;23.1
49583;BME280;36329;48.816;44.624;2023-05-20T13:08:35;101221;;;26.9;23.7
49583;BME280;36329;48.816;44.624;2023-05-20T13:11:37;101224;;;27;23.7
49583;BME280;36329;48.816;44.624;2023-05-20T13:14:39;101222;;;27;23.5
49583;BME280;36329;48.816;44.624;2023-05-20T13:17:41;101217;;;26.9;23.5
49583;BME280;36329;48.816;44.624;2023-05-20T13:20:44;101218;;;26.8;23.5
49583;BME280;36329;48.816;44.624;2023-05-20T13:23:46;101223;;;26.9;24
49583;BME280;36329;48.816;44.624;2023-05-20T13:26:48;101216;;;26.9;24.1
49583;BME280;36329;48.816;44.624;2023-05-20T13:29:50;101216;;;26.9;24
49583;BME280;36329;48.816;44.624;2023-05-20T13:32:52;101211;;;26.8;24.2
49583;BME280;36329;48.816;44.624;2023-05-20T13:35:54;101214;;;26.8;24
49583;BME280;36329;48.816;44.624;2023-05-20T13:38:56;101210;;;26.9;24.1
49583;BME280;36329;48.816;44.624;2023-05-20T13:41:57;101202;;;26.8;23.6
49583;BME280;36329;48.816;44.624;2023-05-20T13:44:59;101197;;;26.6;23.9
49583;BME280;36329;48.816;44.624;2023-05-20T13:48:01;101190;;;26.7;24.1
49583;BME280;36329;48.816;44.624;2023-05-20T13:51:04;101188;;;26.7;24.4
49583;BME280;36329;48.816;44.624;2023-05-20T13:54:06;101185;;;26.7;24.2
49583;BME280;36329;48.816;44.624;2023-05-20T13:57:08;101186;;;26.8;24.3
49583;BME280;36329;48.816;44.624;2023-05-20T14:00:10;101185;;;26.7;24.2
49583;BME280;36329;48.816;44.624;2023-05-20T14:03:13;101183;;;26.8;24.9
49583;BME280;36329;48.816;44.624;2023-05-20T14:06:15;101183;;;26.7;24.2
49583;BME280;36329;48.816;44.624;2023-05-20T14:09:17;101174;;;26.5;24.5
49583;BME280;36329;48.816;44.624;2023-05-20T14:12:19;101170;;;26.6;24.6
49583;BME280;36329;48.816;44.624;2023-05-20T14:15:21;101170;;;26.6;25.1
49583;BME280;36329;48.816;44.624;2023-05-20T14:18:23;101169;;;26.5;24.6
49583;BME280;36329;48.816;44.624;2023-05-20T14:21:25;101172;;;26.4;24.7
49583;BME280;36329;48.816;44.624;2023-05-20T14:24:27;101171;;;26.5;24.5
49583;BME280;36329;48.816;44.624;2023-05-20T14:27:29;101160;;;26.4;24.4
49583;BME280;36329;48.816;44.624;2023-05-20T14:30:32;101159;;;26.4;24.5
49583;BME280;36329;48.816;44.624;2023-05-20T14:33:34;101157;;;26.4;24.7
49583;BME280;36329;48.816;44.624;2023-05-20T14:36:36;101155;;;26.4;25
49583;BME280;36329;48.816;44.624;2023-05-20T14:39:38;101153;;;26.4;25
49583;BME280;36329;48.816;44.624;2023-05-20T14:42:40;101150;;;26.3;24.8
49583;BME280;36329;48.816;44.624;2023-05-20T14:45:42;101155;;;26.4;25
49583;BME280;36329;48.816;44.624;2023-05-20T14:48:44;101156;;;26.3;25.4
49583;BME280;36329;48.816;44.624;2023-05-20T14:51:46;101158;;;26.2;25.3
49583;BME280;36329;48.816;44.624;2023-05-20T14:54:48;101156;;;26.1;25
49583;BME280;36329;48.816;44.624;2023-05-20T14:57:50;101165;;;26.1;25.4
49583;BME280;36329;48.816;44.624;2023-05-20T15:00:52;101162;;;26;25.4
49583;BME280;36329;48.816;44.624;2023-05-20T15:03:55;101161;;;26;25.5
49583;BME280;36329;48.816;44.624;2023-05-20T15:06:57;101162;;;26;25.6
49583;BME280;36329;48.816;44.624;2023-05-20T15:09:59;101162;;;25.9;25.1
49583;BME280;36329;48.816;44.624;2023-05-20T15:13:01;101160;;;25.8;25.5
49583;BME280;36329;48.816;44.624;2023-05-20T15:16:04;101154;;;25.8;25.6
49583;BME280;36329;48.816;44.624;2023-05-20T15:19:06;101158;;;25.8;26.1
49583;BME280;36329;48.816;44.624;2023-05-20T15:22:08;101158;;;25.7;25.9
49583;BME280;36329;48.816;44.624;2023-05-20T15:25:10;101160;;;25.8;26.3
49583;BME280;36329;48.816;44.624;2023-05-20T15:28:12;101158;;;25.7;25.8
49583;BME280;36329;48.816;44.624;2023-05-20T15:31:14;101164;;;25.7;26.2
49583;BME280;36329;48.816;44.624;2023-05-20T15:34:16;101167;;;25.6;26.2
49583;BME280;36329;48.816;44.624;2023-05-20T15:37:18;101170;;;25.6;26.2
49583;BME280;36329;48.816;44.624;2023-05-20T15:40:21;101166;;;25.6;26.1
49583;BME280;36329;48.816;44.624;2023-05-20T15:43:23;101175;;;25.5;26
49583;BME280;36329;48.816;44.624;2023-05-20T15:46:25;101179;;;25.4;26.4
49583;BME280;36329;48.816;44.624;2023-05-20T15:49:27;101183;;;25.4;26.7
49583;BME280;36329;48.816;44.624;2023-05-20T15:52:29;101185;;;25.2;26.7
49583;BME280;36329;48.816;44.624;2023-05-20T15:55:31;101185;;;25.1;27.2
49583;BME280;36329;48.816;44.624;2023-05-20T15:58:33;101195;;;25;27.7
49583;BME280;36329;48.816;44.624;2023-05-20T16:01:35;101191;;;24.9;27.9
49583;BME280;36329;48.816;44.624;2023-05-20T16:04:37;101202;;;24.8;28.2
49583;BME280;36329;48.816;44.624;2023-05-20T16:07:41;101206;;;24.7;28.4
49583;BME280;36329;48.816;44.624;2023-05-20T16:10:43;101209;;;24.7;29.2
49583;BME280;36329;48.816;44.624;2023-05-20T16:13:46;101210;;;24.7;29.1
49583;BME280;36329;48.816;44.624;2023-05-20T16:16:48;101213;;;24.5;29.6
49583;BME280;36329;48.816;44.624;2023-05-20T16:19:50;101212;;;24.5;31.5
49583;BME280;36329;48.816;44.624;2023-05-20T16:22:51;101208;;;24.4;31.5
49583;BME280;36329;48.816;44.624;2023-05-20T16:25:53;101212;;;24.3;32.2
49583;BME280;36329;48.816;44.624;2023-05-20T16:28:55;101212;;;24.2;32.7
49583;BME280;36329;48.816;44.624;2023-05-20T16:31:58;101208;;;24.1;34.2
49583;BME280;36329;48.816;44.624;2023-05-20T16:35:00;101202;;;24;34.6
49583;BME280;36329;48.816;44.624;2023-05-20T16:38:02;101202;;;24;34.3
49583;BME280;36329;48.816;44.624;2023-05-20T16:41:04;101205;;;24;33.7
49583;BME280;36329;48.816;44.624;2023-05-20T16:44:06;101207;;;24;34.1
49583;BME280;36329;48.816;44.624;2023-05-20T16:47:08;101208;;;24;34.6
49583;BME280;36329;48.816;44.624;2023-05-20T16:50:10;101207;;;23.9;35
49583;BME280;36329;48.816;44.624;2023-05-20T16:53:12;101213;;;23.9;35.1
49583;BME280;36329;48.816;44.624;2023-05-20T16:56:14;101212;;;23.9;35.5